KSGH/SGH METAR and TAF weather

Enter ICAO airport designator
Station Type Date Time Source
KSGH METAR 2022/06/26 07:56 UTC NOAA

KSGH 260756Z AUTO 17005KT 10SM SCT085 23/22 A3004 RMK AO2 SLP163 T02330222 $


Station Type Date Time Source
KSGH Decoded METAR 2022/06/26 07:56 UTC NOAA

Springfield, Springfield-Beckley Municipal Airport, OH, United States (KSGH) 39-50-25N 083-50-24W
Jun 26, 2022 - 03:56 AM EDT / 2022.06.26 0756 UTC
Wind: from the S (170 degrees) at 6 MPH (5 KT):0
Visibility: 10 mile(s):0
Sky conditions: partly cloudy
Temperature: 73.9 F (23.3 C)
Dew Point: 72.0 F (22.2 C)
Relative Humidity: 93%
Pressure (altimeter): 30.04 in. Hg (1017 hPa)
ob: KSGH 260756Z AUTO 17005KT 10SM SCT085 23/22 A3004 RMK AO2 SLP163 T02330222
cycle: 8

Station Type Date Time Source
KSGH TAF UTC NOAA

Error!

Example: see airport list